Terminal Aerodrome Forecast
Issued by NWS Kansas City/Pleasant Hill, MO

Home | Current Version | Previous Version | Text Only | Print | Product List | Glossary On
Versions: 1 2 3 4 5 6 7 8 9 10 11 12 13 14
000
FTUS43 KEAX 281700
TAFMCI
TAF
KMCI 281720Z 2818/0118 15008KT 1SM -SN OVC015
     FM010000 16005KT P6SM OVC020
     FM010600 18004KT 3SM -SN OVC020
     FM011400 28005KT 2SM -SN OVC015=

USA.gov is the U.S. government's official web portal to all federal, state and local government web resources and services.